Time;durP1;ratioP1;P1;durP2;ratioP2;P2;SDS_P1;SDS_P2;PMS_P1;PMS_P2;Temp;Humidity;BMP_temperature;BMP_pressure;BME280_temperature;BME280_humidity;BME280_pressure;Samples;Min_cycle;Max_cycle;Signal;HPM_P1;HPM_P2
2021/10/13 00:00:49;;;;;;;11.05;5.67;;;;;;;10.30;72.83;100554.02;1710706;82;20191;-64
2021/10/13 00:03:23;;;;;;;10.03;4.53;;;;;;;10.26;72.89;100556.55;1711728;84;21348;-64
2021/10/13 00:06:00;;;;;;;12.35;5.22;;;;;;;10.24;72.95;100558.47;1710880;84;21272;-64
2021/10/13 00:08:43;;;;;;;9.80;4.97;;;;;;;10.22;72.99;100555.16;1711994;84;21772;-64
2021/10/13 00:11:18;;;;;;;9.18;4.80;;;;;;;10.21;73.08;100557.88;1710433;84;21224;-66
2021/10/13 00:13:54;;;;;;;10.43;4.47;;;;;;;10.18;73.17;100556.34;1710872;82;21229;-64
2021/10/13 00:16:34;;;;;;;7.75;4.70;;;;;;;10.16;73.19;100553.02;1710333;84;21767;-63
2021/10/13 00:19:09;;;;;;;7.75;4.22;;;;;;;10.13;73.30;100546.26;1712295;84;21268;-63
2021/10/13 00:21:42;;;;;;;9.65;4.08;;;;;;;10.11;73.35;100547.30;1711919;84;21328;-64
2021/10/13 00:24:19;;;;;;;10.15;4.40;;;;;;;10.08;73.47;100547.55;1711886;84;21264;-64
2021/10/13 00:26:58;;;;;;;8.20;4.58;;;;;;;10.05;73.49;100549.94;1711785;84;21257;-64
2021/10/13 00:29:36;;;;;;;8.85;4.10;;;;;;;10.01;73.62;100550.31;1712353;84;21276;-64
2021/10/13 00:32:13;;;;;;;7.97;3.87;;;;;;;9.99;73.78;100552.23;1711623;84;21284;-65
2021/10/13 00:34:52;;;;;;;7.70;3.72;;;;;;;9.94;73.90;100551.30;1712100;84;21154;-64
2021/10/13 00:37:28;;;;;;;9.80;4.53;;;;;;;9.92;74.14;100551.91;1710856;84;21213;-64
2021/10/13 00:40:08;;;;;;;9.80;4.10;;;;;;;9.89;74.22;100552.61;1711977;84;21268;-64
2021/10/13 00:42:46;;;;;;;7.28;3.60;;;;;;;9.86;74.37;100549.77;1716142;82;21259;-64
2021/10/13 00:45:23;;;;;;;10.08;3.98;;;;;;;9.85;74.44;100551.22;1718348;82;21284;-64
2021/10/13 00:48:02;;;;;;;8.50;4.55;;;;;;;9.83;74.53;100548.73;1718943;82;21288;-64
2021/10/13 00:50:37;;;;;;;6.65;4.25;;;;;;;9.81;74.65;100544.11;1723333;82;21334;-64
2021/10/13 00:53:11;;;;;;;10.58;3.52;;;;;;;9.78;74.77;100541.73;1718271;83;21189;-64
2021/10/13 00:55:48;;;;;;;8.48;3.37;;;;;;;9.76;74.86;100528.44;1717628;82;21795;-64
2021/10/13 00:58:24;;;;;;;11.43;4.15;;;;;;;9.73;75.11;100538.66;1718054;82;21280;-65
2021/10/13 01:01:25;;;;;;;9.53;4.42;;;;;;;9.73;75.30;100545.20;1720577;82;21161;-62
2021/10/13 01:04:33;;;;;;;9.68;3.77;;;;;;;9.69;75.38;100546.41;1718942;82;21827;-63
2021/10/13 01:07:36;;;;;;;8.28;4.05;;;;;;;9.66;75.60;100546.64;1719179;83;21284;-62
2021/10/13 01:10:26;;;;;;;10.90;4.35;;;;;;;9.63;75.68;100544.27;1719559;83;21300;-63
2021/10/13 01:13:23;;;;;;;8.08;3.80;;;;;;;9.61;75.73;100545.34;1717395;83;21204;-63
2021/10/13 01:16:28;;;;;;;11.43;4.70;;;;;;;9.60;75.99;100543.20;1718719;83;21201;-63
2021/10/13 01:19:31;;;;;;;8.53;3.40;;;;;;;9.57;76.11;100546.08;1718283;83;21264;-63
2021/10/13 01:22:27;;;;;;;5.90;2.90;;;;;;;9.56;76.30;100543.09;1718117;82;21275;-63
2021/10/13 01:25:30;;;;;;;13.45;4.25;;;;;;;9.55;76.44;100536.23;1719534;82;21265;-64
2021/10/13 01:28:11;;;;;;;7.05;3.50;;;;;;;9.55;76.62;100536.23;1718788;83;21276;-65
2021/10/13 01:31:01;;;;;;;10.55;3.98;;;;;;;9.53;76.83;100526.34;1719879;82;21161;-64
2021/10/13 01:34:00;;;;;;;7.95;3.42;;;;;;;9.53;76.94;100534.69;1692552;83;21300;-65
2021/10/13 01:36:59;;;;;;;7.92;3.27;;;;;;;9.50;77.24;100528.73;1712449;84;21343;-66
2021/10/13 01:39:38;;;;;;;10.38;3.85;;;;;;;9.53;77.56;100528.16;1694563;84;21395;-65
2021/10/13 01:42:18;;;;;;;8.08;3.52;;;;;;;9.56;78.08;100532.64;1694655;84;21772;-67
2021/10/13 01:44:57;;;;;;;5.67;3.35;;;;;;;9.61;78.35;100538.34;1714468;83;21182;-64
2021/10/13 01:47:32;;;;;;;11.78;3.62;;;;;;;9.66;78.60;100538.80;1712919;83;21292;-64
2021/10/13 01:50:12;;;;;;;7.03;3.17;;;;;;;9.72;78.66;100535.68;1721057;82;21165;-64
2021/10/13 01:52:54;;;;;;;11.85;3.42;;;;;;;9.76;78.74;100537.11;1719429;83;21316;-63
2021/10/13 01:55:31;;;;;;;11.20;3.10;;;;;;;9.79;78.70;100529.50;1719440;83;21281;-63
2021/10/13 01:58:05;;;;;;;7.05;2.62;;;;;;;9.81;78.87;100527.59;1719063;83;21327;-64
2021/10/13 02:00:39;;;;;;;12.95;3.60;;;;;;;9.82;78.87;100531.38;1719473;83;21323;-64
2021/10/13 02:03:16;;;;;;;14.98;3.85;;;;;;;9.85;79.09;100536.36;1707190;83;21808;-65
2021/10/13 02:05:56;;;;;;;9.40;3.52;;;;;;;9.89;79.14;100540.38;1691590;83;21303;-64
2021/10/13 02:08:37;;;;;;;11.03;2.90;;;;;;;9.94;79.35;100534.77;1717004;83;21177;-64
2021/10/13 02:11:10;;;;;;;6.28;3.08;;;;;;;10.02;79.68;100531.90;1720682;82;21772;-64
2021/10/13 02:13:44;;;;;;;;;;;;;;;10.10;79.76;100536.00;1719897;83;21208;-64
2021/10/13 02:16:20;;;;;;;9.63;3.33;;;;;;;10.20;79.91;100544.46;1691218;83;20211;-65
2021/10/13 02:18:53;;;;;;;;;;;;;;;10.26;79.95;100545.25;1721367;82;21232;-64
2021/10/13 02:21:28;;;;;;;11.68;3.17;;;;;;;10.35;79.95;100545.78;1721739;82;20237;-64
2021/10/13 02:24:00;;;;;;;13.62;3.60;;;;;;;10.41;79.96;100544.79;1720163;82;21216;-64
2021/10/13 02:26:44;;;;;;;15.07;3.60;;;;;;;10.49;80.04;100541.53;1719564;82;21179;-64
2021/10/13 02:29:20;;;;;;;10.15;3.60;;;;;;;10.60;80.00;100535.74;1718825;83;21293;-64
2021/10/13 02:31:54;;;;;;;10.95;3.90;;;;;;;10.71;79.98;100533.55;1720017;82;21787;-64
2021/10/13 02:34:34;;;;;;;17.62;4.83;;;;;;;10.80;79.91;100530.14;1718682;83;21704;-64
2021/10/13 02:37:08;;;;;;;15.18;3.37;;;;;;;10.90;79.85;100529.70;1718999;83;21300;-65
2021/10/13 02:39:47;;;;;;;14.58;3.25;;;;;;;10.97;79.73;100524.29;1741114;82;21687;-65
2021/10/13 02:42:24;;;;;;;15.55;2.80;;;;;;;11.07;79.67;100513.38;1742639;82;21239;-65
2021/10/13 02:45:01;;;;;;;18.92;3.65;;;;;;;11.16;79.60;100521.73;1741351;82;21133;-64
2021/10/13 02:47:56;;;;;;;17.40;3.55;;;;;;;11.23;79.50;100528.10;1721816;82;21331;-65
2021/10/13 02:50:59;;;;;;;14.30;3.20;;;;;;;11.32;79.47;100524.67;1711127;83;21272;-63
2021/10/13 02:53:51;;;;;;;16.80;3.45;;;;;;;11.42;79.40;100530.77;1713906;83;21266;-64
2021/10/13 02:56:35;;;;;;;15.53;2.98;;;;;;;11.50;79.34;100530.94;1714442;83;21145;-64
2021/10/13 02:59:30;;;;;;;9.78;3.15;;;;;;;11.56;79.32;100529.55;1713083;83;21180;-66
2021/10/13 03:02:05;;;;;;;9.55;3.20;;;;;;;11.63;79.34;100532.48;1712809;83;21272;-66
2021/10/13 03:04:45;;;;;;;19.40;3.75;;;;;;;11.70;79.33;100539.67;1714181;83;21854;-64
2021/10/13 03:07:27;;;;;;;12.50;3.50;;;;;;;11.79;79.24;100538.05;1712794;84;21184;-64
2021/10/13 03:10:06;;;;;;;12.80;3.72;;;;;;;11.88;79.03;100534.59;1714063;83;21169;-63
2021/10/13 03:12:53;;;;;;;13.90;3.67;;;;;;;11.93;78.85;100525.36;1711054;83;21192;-63
2021/10/13 03:15:29;;;;;;;14.10;3.33;;;;;;;11.99;78.70;100522.16;1713791;83;21297;-65
2021/10/13 03:18:07;;;;;;;12.60;3.02;;;;;;;12.04;78.66;100534.38;1713816;84;21272;-64
2021/10/13 03:20:41;;;;;;;16.90;3.50;;;;;;;12.10;78.60;100534.33;1713356;83;21320;-63
2021/10/13 03:23:17;;;;;;;16.93;3.80;;;;;;;12.16;78.56;100533.75;1712705;83;21741;-64
2021/10/13 03:25:53;;;;;;;14.65;3.10;;;;;;;12.22;78.41;100535.84;1712930;83;21284;-63
2021/10/13 03:28:29;;;;;;;20.77;3.98;;;;;;;12.27;78.25;100538.04;1712566;83;21173;-64
2021/10/13 03:31:11;;;;;;;13.85;3.62;;;;;;;12.31;78.11;100532.84;1713734;83;21165;-64
2021/10/13 03:33:53;;;;;;;16.02;5.10;;;;;;;12.36;77.93;100524.91;1724257;83;21731;-66
2021/10/13 03:36:49;;;;;;;16.45;5.92;;;;;;;12.40;77.72;100528.89;1719521;83;21217;-64
2021/10/13 03:39:24;;;;;;;15.93;7.50;;;;;;;12.43;77.53;100529.09;1712862;84;21256;-65
2021/10/13 03:42:02;;;;;;;24.07;10.30;;;;;;;12.46;77.42;100527.03;1712536;84;21194;-66
2021/10/13 03:44:38;;;;;;;23.95;10.15;;;;;;;12.48;77.33;100525.09;1713982;84;21653;-65
2021/10/13 03:47:12;;;;;;;16.37;8.33;;;;;;;12.50;77.25;100527.56;1714064;83;21304;-65
2021/10/13 03:49:47;;;;;;;17.95;4.28;;;;;;;12.51;77.14;100536.63;1714729;82;21177;-66
2021/10/13 03:52:24;;;;;;;15.90;4.15;;;;;;;12.52;77.06;100533.49;1717568;82;21688;-63
2021/10/13 03:55:00;;;;;;;14.07;3.45;;;;;;;12.54;76.95;100523.67;1719341;83;21189;-62
2021/10/13 03:57:39;;;;;;;33.80;12.80;;;;;;;12.55;76.87;100534.53;1718806;83;21303;-65
2021/10/13 04:00:15;;;;;;;29.10;10.20;;;;;;;12.55;76.81;100531.43;1719621;82;21326;-66
2021/10/13 04:02:49;;;;;;;20.30;4.42;;;;;;;12.56;76.71;100529.13;1719781;82;21268;-65
2021/10/13 04:05:22;;;;;;;22.75;8.05;;;;;;;12.56;76.61;100538.32;1719357;82;21345;-65
2021/10/13 04:07:58;;;;;;;17.02;6.22;;;;;;;12.58;76.51;100552.64;1738735;82;21718;-65
2021/10/13 04:10:36;;;;;;;14.10;3.65;;;;;;;12.57;76.41;100541.30;1726214;82;22128;-63
2021/10/13 04:13:12;;;;;;;13.15;2.92;;;;;;;12.59;76.33;100543.77;1715522;83;21322;-65
2021/10/13 04:15:47;;;;;;;13.38;3.12;;;;;;;12.58;76.24;100535.57;1714962;82;21215;-67
2021/10/13 04:18:21;;;;;;;15.43;3.15;;;;;;;12.58;76.22;100540.83;1717545;82;21164;-63
2021/10/13 04:20:57;;;;;;;13.48;3.90;;;;;;;12.57;76.23;100549.18;1719080;82;21280;-65
2021/10/13 04:23:33;;;;;;;12.18;3.50;;;;;;;12.57;76.28;100545.72;1720134;82;21363;-66
2021/10/13 04:26:08;;;;;;;15.48;3.22;;;;;;;12.58;76.33;100559.20;1685927;83;21192;-63
2021/10/13 04:28:46;;;;;;;14.60;3.67;;;;;;;12.58;76.15;100541.66;1716156;83;21251;-66
2021/10/13 04:31:20;;;;;;;14.40;3.37;;;;;;;12.56;75.93;100547.52;1718903;82;21807;-65
2021/10/13 04:33:59;;;;;;;15.45;3.85;;;;;;;12.55;75.56;100541.94;1719136;83;21386;-62
2021/10/13 04:36:33;;;;;;;13.72;3.75;;;;;;;12.56;75.38;100555.39;1719076;82;21674;-64
2021/10/13 04:39:08;;;;;;;24.40;6.03;;;;;;;12.56;75.08;100548.83;1720022;82;21691;-64
2021/10/13 04:41:46;;;;;;;18.62;3.92;;;;;;;12.57;74.90;100549.66;1718878;82;21164;-64
2021/10/13 04:44:25;;;;;;;15.88;3.77;;;;;;;12.60;74.60;100542.34;1720998;82;21185;-63
2021/10/13 04:47:02;;;;;;;15.40;3.37;;;;;;;12.63;74.38;100547.80;1715969;83;22000;-65
2021/10/13 04:49:35;;;;;;;12.98;3.37;;;;;;;12.64;74.12;100530.57;1714248;82;21231;-68
2021/10/13 04:52:10;;;;;;;10.55;3.95;;;;;;;12.71;73.90;100538.70;1713784;82;21552;-62
2021/10/13 04:55:04;;;;;;;12.00;3.30;;;;;;;12.87;73.29;100531.06;1710916;82;21204;-65
2021/10/13 04:57:41;;;;;;;12.10;3.40;;;;;;;12.98;72.70;100545.80;1701357;83;21349;-62
2021/10/13 05:00:19;;;;;;;10.75;3.40;;;;;;;13.36;71.95;100531.20;1686639;85;21423;-62
2021/10/13 05:02:57;;;;;;;13.87;3.10;;;;;;;13.78;70.57;100546.77;1686617;85;21228;-63
2021/10/13 05:05:32;;;;;;;11.73;3.55;;;;;;;14.36;68.88;100550.28;1685768;85;21217;-62
2021/10/13 05:12:19;;;;;;;9.90;3.10;;;;;;;15.24;65.01;100573.71;1686871;84;21223;-66
2021/10/13 05:14:54;;;;;;;10.70;3.37;;;;;;;15.88;62.97;100562.59;1685920;85;21248;-61
2021/10/13 05:21:39;;;;;;;7.47;3.02;;;;;;;15.86;61.44;100565.38;1680850;84;21129;-65
2021/10/13 05:24:13;;;;;;;7.33;3.22;;;;;;;15.52;61.91;100558.54;1680597;85;21582;-68
2021/10/13 05:30:57;;;;;;;9.85;3.12;;;;;;;14.93;63.78;100550.98;1679332;85;21877;-70
2021/10/13 05:33:34;;;;;;;13.68;3.40;;;;;;;15.34;63.21;100564.70;1679591;85;21613;-66
2021/10/13 05:36:10;;;;;;;8.13;3.08;;;;;;;15.50;62.54;100555.55;1680435;85;21589;-67
2021/10/13 05:38:46;;;;;;;8.05;3.30;;;;;;;15.64;62.06;100571.28;1675936;85;21511;-65
2021/10/13 05:41:20;;;;;;;15.60;4.00;;;;;;;15.95;61.41;100563.07;1679273;85;21483;-63
2021/10/13 05:43:54;;;;;;;11.43;3.75;;;;;;;16.30;60.29;100559.80;1679391;85;21336;-61
2021/10/13 05:46:31;;;;;;;14.53;3.98;;;;;;;16.67;59.08;100564.12;1680392;85;21367;-60
2021/10/13 05:49:06;;;;;;;12.45;3.62;;;;;;;17.09;57.90;100555.91;1679166;85;21981;-59
2021/10/13 05:51:42;;;;;;;17.60;4.10;;;;;;;17.59;56.62;100543.63;1679875;85;21351;-60
2021/10/13 05:58:26;;;;;;;10.35;3.83;;;;;;;18.45;53.47;100562.22;1679671;84;21491;-62
2021/10/13 06:01:00;;;;;;;10.55;3.22;;;;;;;18.83;52.17;100557.24;1680033;85;21307;-61
2021/10/13 06:03:34;;;;;;;11.97;3.37;;;;;;;19.00;51.22;100555.23;1679609;85;21217;-64
2021/10/13 06:10:18;;;;;;;12.70;2.70;;;;;;;18.94;51.23;100566.56;1680379;85;21169;-61
2021/10/13 06:12:51;;;;;;;8.95;3.22;;;;;;;18.96;51.13;100584.48;1680709;85;21363;-62
2021/10/13 06:15:30;;;;;;;9.10;3.45;;;;;;;18.80;51.51;100567.38;1680542;85;21311;-61
2021/10/13 06:18:00;;;;;;;15.63;4.20;;;;;;;18.52;52.26;100585.72;1680416;85;21248;-66
2021/10/13 06:20:38;;;;;;;11.00;3.37;;;;;;;18.09;53.17;100562.52;1680120;85;21370;-62
2021/10/13 06:23:11;;;;;;;14.87;3.40;;;;;;;17.39;54.62;100565.70;1680484;85;21331;-66
2021/10/13 06:29:58;;;;;;;8.20;3.22;;;;;;;16.10;58.73;100588.34;1680577;85;21228;-63
2021/10/13 06:32:32;;;;;;;7.97;3.50;;;;;;;15.29;61.56;100590.73;1681090;85;21217;-61
2021/10/13 06:35:08;;;;;;;13.10;3.52;;;;;;;14.94;63.02;100597.47;1681413;85;21553;-62
2021/10/13 06:37:42;;;;;;;10.68;3.12;;;;;;;14.65;64.47;100591.67;1680632;85;21643;-63
2021/10/13 06:40:15;;;;;;;15.53;4.28;;;;;;;14.39;65.58;100580.27;1680835;85;21217;-61
2021/10/13 06:42:52;;;;;;;10.30;3.87;;;;;;;14.24;66.58;100578.63;1680716;85;22104;-62
2021/10/13 06:45:26;;;;;;;11.10;4.30;;;;;;;14.15;67.25;100578.23;1680911;85;21839;-63
2021/10/13 06:48:01;;;;;;;8.30;3.55;;;;;;;14.03;67.96;100593.42;1680955;85;21217;-61
2021/10/13 06:50:36;;;;;;;10.18;4.12;;;;;;;13.93;68.58;100587.39;1680438;85;21920;-64
2021/10/13 06:56:55;;;;;;;17.32;4.42;;;;;;;13.80;69.50;100588.75;1676782;85;21160;-63
2021/10/13 06:59:29;;;;;;;10.93;4.10;;;;;;;13.72;70.16;100591.28;1677614;85;21229;-60
2021/10/13 07:02:03;;;;;;;15.40;4.37;;;;;;;13.68;70.55;100586.81;1677221;85;21337;-64
2021/10/13 07:08:47;;;;;;;12.20;4.35;;;;;;;13.66;71.03;100580.05;1679323;85;21310;-66
2021/10/13 07:11:21;;;;;;;;;;;;;;;13.58;71.71;100598.36;1683483;85;21498;-61
2021/10/13 07:13:55;;;;;;;14.05;4.50;;;;;;;13.52;72.04;100581.34;1682126;85;20206;-65
2021/10/13 07:16:30;;;;;;;14.63;4.78;;;;;;;13.48;72.24;100576.89;1682510;85;21635;-65
2021/10/13 07:19:04;;;;;;;13.55;6.28;;;;;;;13.51;72.40;100574.45;1685613;85;21216;-64
2021/10/13 07:22:15;;;;;;;12.30;5.80;;;;;;;13.55;72.66;100574.97;1688688;85;21346;-67
2021/10/13 07:25:12;;;;;;;12.43;5.70;;;;;;;13.59;72.83;100573.72;1687131;85;21354;-62
2021/10/13 07:27:48;;;;;;;7.90;4.30;;;;;;;13.64;73.09;100560.44;1685427;84;22139;-66
2021/10/13 07:30:24;;;;;;;;;;;;;;;13.69;73.28;100562.14;1689166;85;21358;-67
2021/10/13 07:32:57;;;;;;;11.05;4.90;;;;;;;13.74;73.52;100563.84;1687305;84;20325;-63
2021/10/13 07:35:30;;;;;;;9.30;4.35;;;;;;;13.74;73.85;100559.06;1686514;85;21335;-63
2021/10/13 07:38:04;;;;;;;11.60;5.85;;;;;;;13.73;74.00;100566.13;1687036;85;21335;-67
2021/10/13 07:40:37;;;;;;;19.12;8.48;;;;;;;13.72;74.39;100568.91;1680622;85;21633;-65
2021/10/13 07:43:11;;;;;;;12.93;5.87;;;;;;;13.72;74.78;100549.18;1680378;85;21217;-64
2021/10/13 07:45:46;;;;;;;14.60;5.40;;;;;;;13.72;75.13;100554.44;1662221;85;21351;-63
2021/10/13 07:48:20;;;;;;;17.48;5.58;;;;;;;13.78;75.36;100548.59;1680858;85;21221;-61
2021/10/13 07:50:57;;;;;;;20.02;7.03;;;;;;;13.83;75.72;100560.31;1681086;85;21616;-62
2021/10/13 07:53:33;;;;;;;17.65;7.08;;;;;;;13.86;76.11;100556.08;1686450;85;21337;-61
2021/10/13 07:56:06;;;;;;;15.15;6.97;;;;;;;13.88;76.31;100554.11;1686276;85;22051;-63
2021/10/13 07:58:39;;;;;;;18.23;7.15;;;;;;;13.95;76.47;100557.80;1686675;85;21390;-61
2021/10/13 08:01:13;;;;;;;21.48;7.67;;;;;;;13.98;76.54;100544.34;1686254;85;21525;-64
2021/10/13 08:03:48;;;;;;;12.10;6.35;;;;;;;14.04;76.57;100547.67;1687656;85;21317;-59
2021/10/13 08:06:24;;;;;;;20.37;8.05;;;;;;;14.11;76.46;100535.56;1686122;85;22212;-62
2021/10/13 08:09:01;;;;;;;12.53;5.95;;;;;;;14.19;76.34;100526.91;1686109;85;22003;-61
2021/10/13 08:11:38;;;;;;;13.25;6.42;;;;;;;14.29;76.17;100534.23;1687483;85;21347;-63
2021/10/13 08:14:14;;;;;;;11.80;6.33;;;;;;;14.37;75.85;100522.48;1687465;85;22055;-65
2021/10/13 08:16:47;;;;;;;16.67;6.70;;;;;;;14.44;75.62;100525.33;1687332;85;21914;-69
2021/10/13 08:19:22;;;;;;;15.08;6.67;;;;;;;14.49;75.35;100525.69;1685728;85;21276;-67
2021/10/13 08:21:56;;;;;;;14.28;7.03;;;;;;;14.53;75.17;100519.13;1687408;85;21378;-69
2021/10/13 08:24:32;;;;;;;16.23;6.25;;;;;;;14.58;74.93;100526.91;1687334;85;21375;-65
2021/10/13 08:27:07;;;;;;;18.05;6.78;;;;;;;14.63;74.65;100533.86;1687628;85;21327;-63
2021/10/13 08:29:42;;;;;;;13.03;6.03;;;;;;;14.67;74.45;100516.75;1685677;85;21276;-65
2021/10/13 08:32:17;;;;;;;15.68;6.75;;;;;;;14.69;74.17;100526.64;1687143;85;21560;-67
2021/10/13 08:34:51;;;;;;;14.05;6.15;;;;;;;14.69;74.04;100517.90;1687184;85;21204;-68
2021/10/13 08:37:24;;;;;;;24.30;7.30;;;;;;;14.70;74.00;100530.94;1687703;85;21339;-66
2021/10/13 08:39:57;;;;;;;17.42;6.55;;;;;;;14.74;73.95;100516.46;1687217;85;21319;-65
2021/10/13 08:42:31;;;;;;;15.08;5.97;;;;;;;14.81;73.81;100497.72;1687020;85;21345;-63
2021/10/13 08:45:05;;;;;;;;;;;;;;;14.94;73.43;100513.59;1687894;85;21478;-67
2021/10/13 08:47:40;;;;;;;17.37;6.33;;;;;;;15.03;73.05;100507.37;1687108;85;20197;-62
2021/10/13 08:50:13;;;;;;;17.67;6.53;;;;;;;15.08;72.83;100495.38;1687365;85;21606;-67
2021/10/13 08:52:52;;;;;;;15.40;7.53;;;;;;;15.17;72.37;100509.40;1687341;85;21222;-64
2021/10/13 08:55:25;;;;;;;18.17;6.60;;;;;;;15.19;72.03;100489.80;1687375;85;22087;-66
2021/10/13 08:58:21;;;;;;;17.10;6.90;;;;;;;15.22;71.90;100476.30;1687379;85;21197;-64
2021/10/13 09:01:08;;;;;;;15.05;5.78;;;;;;;15.28;71.79;100469.56;1687749;85;21320;-65
2021/10/13 09:07:56;;;;;;;13.43;6.05;;;;;;;15.57;70.95;100478.40;1688291;85;21461;-65
2021/10/13 09:10:36;;;;;;;15.85;6.17;;;;;;;15.74;70.08;100456.32;1687528;85;21357;-66
2021/10/13 09:13:18;;;;;;;13.53;6.08;;;;;;;15.89;69.67;100452.02;1686984;85;21206;-66
2021/10/13 09:15:54;;;;;;;16.62;6.17;;;;;;;16.06;68.64;100461.58;1687325;85;21228;-64
2021/10/13 09:22:37;;;;;;;14.68;5.87;;;;;;;16.20;67.47;100456.95;1686332;84;21181;-65
2021/10/13 09:25:13;;;;;;;11.43;5.28;;;;;;;16.30;66.73;100443.06;1687890;85;22048;-68
2021/10/13 09:27:46;;;;;;;13.80;6.12;;;;;;;16.45;66.35;100430.82;1686599;84;21603;-67
2021/10/13 09:30:32;;;;;;;20.68;6.03;;;;;;;16.60;65.74;100417.23;1659105;85;21193;-67
2021/10/13 09:33:16;;;;;;;13.60;4.97;;;;;;;16.75;64.99;100441.98;1686165;85;21680;-67
2021/10/13 09:35:55;;;;;;;12.40;5.90;;;;;;;16.82;64.46;100423.60;1687751;84;21487;-62
2021/10/13 09:38:28;;;;;;;16.87;5.17;;;;;;;16.90;63.86;100417.45;1687446;84;21244;-66
2021/10/13 09:41:02;;;;;;;10.55;4.62;;;;;;;17.00;63.44;100429.48;1687568;84;21602;-64
2021/10/13 09:43:38;;;;;;;10.53;4.78;;;;;;;17.15;62.84;100409.70;1687078;85;21382;-64
2021/10/13 09:46:14;;;;;;;17.60;5.25;;;;;;;17.28;62.44;100409.48;1687664;85;21323;-65
2021/10/13 09:52:57;;;;;;;13.40;5.53;;;;;;;17.61;60.80;100405.29;1686383;84;21476;-66
2021/10/13 09:55:36;;;;;;;12.47;4.83;;;;;;;17.69;60.67;100397.30;1659068;85;21196;-66
2021/10/13 10:02:22;;;;;;;16.23;5.45;;;;;;;17.90;59.70;100390.81;1684115;84;21204;-67
2021/10/13 10:04:58;;;;;;;18.12;6.08;;;;;;;17.94;59.52;100370.41;1680469;84;21260;-67
2021/10/13 10:07:33;;;;;;;14.38;5.12;;;;;;;17.96;59.15;100382.96;1682140;84;22226;-70
2021/10/13 10:10:14;;;;;;;14.68;4.25;;;;;;;17.91;59.23;100382.67;1682622;84;22136;-67
2021/10/13 10:13:10;;;;;;;19.27;4.47;;;;;;;17.90;59.19;100363.00;1682036;84;22058;-68
2021/10/13 10:15:50;;;;;;;18.73;4.53;;;;;;;17.87;59.37;100364.19;1682389;84;22085;-65
2021/10/13 10:18:35;;;;;;;17.40;4.30;;;;;;;17.88;59.00;100363.19;1681177;84;22184;-60
2021/10/13 10:21:28;;;;;;;15.05;4.33;;;;;;;17.86;58.67;100344.52;1683570;84;21319;-63
2021/10/13 10:24:22;;;;;;;9.55;4.25;;;;;;;17.84;58.44;100350.50;1687498;84;21323;-63
2021/10/13 10:27:31;;;;;;;15.78;3.85;;;;;;;17.82;58.57;100347.18;1682674;85;21209;-64
2021/10/13 10:30:17;;;;;;;13.83;3.60;;;;;;;17.83;58.38;100335.10;1682568;84;21740;-67
2021/10/13 10:33:08;;;;;;;15.00;4.42;;;;;;;17.86;57.49;100347.16;1682033;84;21323;-65
2021/10/13 10:35:45;;;;;;;12.60;4.53;;;;;;;17.85;57.36;100321.67;1682866;84;21273;-65
2021/10/13 10:38:21;;;;;;;7.58;3.50;;;;;;;17.88;57.42;100315.52;1681626;84;22159;-64
2021/10/13 10:41:10;;;;;;;13.48;3.30;;;;;;;17.96;57.05;100295.55;1680731;85;21346;-60
2021/10/13 10:43:47;;;;;;;22.20;3.65;;;;;;;18.03;56.66;100326.13;1681249;84;21220;-65
2021/10/13 10:46:22;;;;;;;22.07;3.67;;;;;;;18.10;56.57;100298.70;1682808;84;21331;-65
2021/10/13 10:48:56;;;;;;;14.87;4.05;;;;;;;18.23;55.65;100294.58;1682276;84;21506;-66
2021/10/13 10:51:30;;;;;;;12.80;4.03;;;;;;;18.37;55.47;100277.83;1669842;84;22239;-65
2021/10/13 10:54:28;;;;;;;16.25;3.20;;;;;;;18.54;55.16;100291.23;1643435;86;21244;-60
2021/10/13 10:57:25;;;;;;;8.05;3.35;;;;;;;18.62;54.24;100285.33;1676870;85;21602;-64
2021/10/13 11:03:54;;;;;;;10.63;3.40;;;;;;;18.81;53.16;100286.55;1684590;85;20253;-64
2021/10/13 11:06:28;;;;;;;19.52;3.72;;;;;;;18.81;53.16;100286.55;1687594;85;22283;-66
2021/10/13 11:09:10;;;;;;;11.60;3.72;;;;;;;18.83;53.39;100301.77;1686751;85;21808;-63
2021/10/13 11:11:48;;;;;;;11.80;4.05;;;;;;;18.84;53.24;100285.66;1687452;85;21189;-67
2021/10/13 11:14:28;;;;;;;11.38;3.67;;;;;;;18.87;53.19;100278.35;1686486;85;21523;-68
2021/10/13 11:17:03;;;;;;;13.15;4.00;;;;;;;18.88;53.18;100299.88;1685157;85;21208;-70
2021/10/13 11:19:38;;;;;;;22.73;4.58;;;;;;;18.92;52.67;100277.25;1686292;85;21435;-67
2021/10/13 11:26:28;;;;;;;14.07;4.05;;;;;;;19.04;51.93;100298.30;1679176;85;21149;-62
2021/10/13 11:29:03;;;;;;;15.95;4.20;;;;;;;19.02;51.91;100277.77;1686715;85;21390;-62
2021/10/13 11:31:39;;;;;;;20.30;4.65;;;;;;;19.02;51.82;100275.11;1687260;85;22030;-64
2021/10/13 11:38:27;;;;;;;9.48;3.80;;;;;;;19.07;51.27;100268.23;1687982;84;21326;-65
2021/10/13 11:41:13;;;;;;;16.10;4.62;;;;;;;19.09;51.04;100299.38;1687295;84;21621;-63
2021/10/13 11:43:46;;;;;;;18.42;3.87;;;;;;;19.12;51.05;100274.30;1658199;85;21358;-66
2021/10/13 11:46:21;;;;;;;8.68;4.20;;;;;;;19.13;51.03;100267.46;1686493;85;21311;-65
2021/10/13 11:48:55;;;;;;;;;;;;;;;19.19;50.89;100261.41;1689920;85;21582;-64
2021/10/13 11:51:34;;;;;;;16.32;4.87;;;;;;;19.25;50.78;100251.87;1660233;85;20205;-65
2021/10/13 11:54:11;;;;;;;10.43;3.98;;;;;;;19.29;50.77;100251.28;1687260;84;21276;-64
2021/10/13 11:56:50;;;;;;;16.90;4.97;;;;;;;19.34;50.23;100263.48;1686346;85;21244;-66
2021/10/13 11:59:23;;;;;;;13.70;4.78;;;;;;;19.38;49.81;100254.14;1686929;85;21339;-61
2021/10/13 12:01:56;;;;;;;15.00;4.72;;;;;;;19.47;49.54;100265.42;1687866;85;21335;-63
2021/10/13 12:04:31;;;;;;;16.62;4.87;;;;;;;19.56;49.07;100252.84;1686723;85;21330;-62
2021/10/13 12:07:09;;;;;;;19.07;4.85;;;;;;;19.65;48.74;100279.06;1686203;85;22148;-68
2021/10/13 12:09:50;;;;;;;15.78;4.55;;;;;;;19.76;48.17;100252.45;1687067;85;21359;-69
2021/10/13 12:12:25;;;;;;;13.72;5.33;;;;;;;19.82;47.76;100258.32;1685464;85;21484;-69
2021/10/13 12:15:00;;;;;;;12.63;4.05;;;;;;;19.86;47.19;100263.05;1687078;85;21315;-66
2021/10/13 12:17:35;;;;;;;18.75;4.40;;;;;;;19.90;46.92;100266.12;1686101;85;21223;-65
2021/10/13 12:20:18;;;;;;;13.40;4.60;;;;;;;19.94;46.45;100254.90;1686758;85;21371;-63
2021/10/13 12:22:54;;;;;;;12.18;4.17;;;;;;;20.00;46.21;100261.27;1687534;85;21202;-67
2021/10/13 12:25:32;;;;;;;13.48;4.37;;;;;;;20.04;45.69;100242.08;1687094;85;21366;-68
2021/10/13 12:28:22;;;;;;;11.38;4.65;;;;;;;20.09;45.68;100241.48;1687482;85;21260;-66
2021/10/13 12:31:06;;;;;;;11.45;5.15;;;;;;;20.09;45.70;100251.61;1686831;85;21249;-70
2021/10/13 12:33:45;;;;;;;13.62;4.95;;;;;;;20.11;45.88;100266.02;1687698;85;21245;-64
2021/10/13 12:36:24;;;;;;;13.03;5.10;;;;;;;20.10;45.64;100249.28;1686871;85;22077;-64
2021/10/13 12:39:09;;;;;;;17.05;5.12;;;;;;;20.14;45.74;100261.14;1688950;85;21606;-67
2021/10/13 12:41:48;;;;;;;12.23;5.45;;;;;;;20.14;45.61;100245.70;1687439;85;21266;-64
2021/10/13 12:44:25;;;;;;;12.95;5.85;;;;;;;20.12;45.89;100231.29;1687525;85;21319;-68
2021/10/13 12:51:12;;;;;;;12.55;5.85;;;;;;;20.04;45.74;100251.88;1686441;84;21236;-66
2021/10/13 12:57:55;;;;;;;11.70;4.95;;;;;;;19.95;45.27;100263.70;1687884;84;21443;-67
2021/10/13 13:04:37;;;;;;;11.38;4.92;;;;;;;19.90;44.54;100263.46;1687553;84;21232;-64
2021/10/13 13:07:11;;;;;;;11.00;5.03;;;;;;;19.84;44.26;100255.78;1686819;85;21236;-67
2021/10/13 13:09:50;;;;;;;18.25;4.80;;;;;;;19.82;44.31;100263.63;1687409;85;21232;-64
2021/10/13 13:12:19;;;;;;;11.35;4.47;;;;;;;19.77;44.45;100254.92;1687699;85;21339;-67
2021/10/13 13:14:52;;;;;;;13.50;4.40;;;;;;;19.73;44.37;100275.41;1687733;85;21382;-68
2021/10/13 13:17:25;;;;;;;14.23;5.00;;;;;;;19.68;44.33;100276.52;1686591;85;21633;-67
2021/10/13 13:19:58;;;;;;;;;;;;;;;19.65;44.29;100306.12;1689096;85;21246;-67
2021/10/13 13:22:31;;;;;;;16.05;5.33;;;;;;;19.60;44.47;100300.56;1685014;85;20396;-65
2021/10/13 13:25:05;;;;;;;13.28;4.97;;;;;;;19.54;44.53;100296.00;1684758;85;21617;-66
2021/10/13 13:27:39;;;;;;;13.10;4.33;;;;;;;19.48;44.61;100305.58;1686092;85;21322;-67